| time (UTC) | temp C | wind direction | speed KPH | gust KPH | rain 1hr cm | rain 24hr cm | rain mn cm | humidity % | barometer mb |
| 20260507112135 | 10 | 0.0 | 1.6 | 0.00 | 0.00 | 0.00 | 79 | ||
| 20260507111135 | 10 | 293 | 1.6 | 6.4 | 0.00 | 0.00 | 0.00 | 79 | |
| 20260507110134 | 10 | 293 | 3.2 | 8.0 | 0.00 | 0.00 | 0.00 | 79 | |
| 20260507105135 | 10 | 293 | 3.2 | 6.4 | 0.00 | 0.00 | 0.00 | 79 | |
| 20260507104155 | 10 | 293 | 3.2 | 8.0 | 0.00 | 0.00 | 0.00 | 78 | |
| 20260507103135 | 10 | 293 | 3.2 | 8.0 | 0.00 | 0.00 | 0.00 | 78 | |
| 20260507102134 | 10 | 293 | 4.8 | 9.7 | 0.00 | 0.00 | 0.00 | 78 | |
| 20260507101135 | 11 | 293 | 4.8 | 12.9 | 0.00 | 0.00 | 0.00 | 78 | |
| 20260507100134 | 11 | 293 | 4.8 | 9.7 | 0.00 | 0.00 | 0.00 | 78 | |
| 20260507095135 | 11 | 293 | 3.2 | 8.0 | 0.00 | 0.00 | 0.00 | 79 | |
| 20260507094135 | 11 | 293 | 4.8 | 9.7 | 0.00 | 0.00 | 0.00 | 78 | |
| 20260507093134 | 11 | 293 | 3.2 | 9.7 | 0.00 | 0.00 | 0.00 | 78 | |
| 20260507092134 | 11 | 293 | 6.4 | 12.9 | 0.00 | 0.00 | 0.00 | 78 | |
| 20260507091135 | 11 | 293 | 6.4 | 12.9 | 0.00 | 0.00 | 0.00 | 78 | |
| 20260507090154 | 11 | 293 | 8.0 | 12.9 | 0.00 | 0.00 | 0.00 | 78 | |
| 20260507085155 | 12 | 293 | 6.4 | 11.3 | 0.00 | 0.00 | 0.00 | 78 | |
| 20260507084135 | 12 | 293 | 8.0 | 16.1 | 0.00 | 0.00 | 0.00 | 78 | |
| 20260507083135 | 12 | 315 | 6.4 | 12.9 | 0.00 | 0.00 | 0.00 | 77 | |
| 20260507082135 | 12 | 293 | 6.4 | 14.5 | 0.00 | 0.00 | 0.00 | 76 | |
| 20260507081135 | 12 | 293 | 8.0 | 14.5 | 0.00 | 0.00 | 0.00 | 76 | |
| 20260507080135 | 12 | 315 | 9.7 | 19.3 | 0.00 | 0.00 | 0.00 | 76 | |
| 20260507075134 | 12 | 270 | 8.0 | 14.5 | 0.00 | 0.00 | 0.00 | 77 | |
| 20260507074135 | 12 | 293 | 6.4 | 12.9 | 0.00 | 0.00 | 0.00 | 80 | |
| 20260507073215 | 12 | 270 | 6.4 | 14.5 | 0.00 | 0.00 | 0.00 | 80 | |
| 20260507072135 | 12 | 293 | 8.0 | 14.5 | 0.00 | 0.00 | 0.00 | 80 | |
| 20260507071135 | 12 | 270 | 8.0 | 14.5 | 0.00 | 0.00 | 0.00 | 81 | |
| 20260507070134 | 12 | 270 | 6.4 | 11.3 | 0.00 | 0.00 | 0.00 | 79 | |
| 20260507065214 | 12 | 293 | 8.0 | 14.5 | 0.00 | 0.00 | 0.00 | 79 | |
| 20260507064135 | 13 | 293 | 4.8 | 9.7 | 0.00 | 0.00 | 0.00 | 79 | |
| 20260507063214 | 13 | 293 | 4.8 | 11.3 | 0.00 | 0.00 | 0.00 | 79 | |
| 20260507062154 | 13 | 293 | 6.4 | 11.3 | 0.00 | 0.00 | 0.00 | 78 | |
| 20260507061134 | 13 | 293 | 6.4 | 12.9 | 0.00 | 0.00 | 0.00 | 79 | |
| 20260507060135 | 13 | 270 | 4.8 | 11.3 | 0.00 | 0.00 | 0.00 | 79 | |
| 20260507055135 | 13 | 270 | 4.8 | 9.7 | 0.00 | 0.00 | 0.00 | 79 | |
| 20260507054135 | 13 | 270 | 4.8 | 11.3 | 0.00 | 0.00 | 0.00 | 79 | |
| 20260507053134 | 13 | 270 | 6.4 | 14.5 | 0.00 | 0.00 | 0.00 | 79 | |
| 20260507052134 | 13 | 293 | 4.8 | 12.9 | 0.00 | 0.00 | 0.00 | 79 | |
| 20260507051135 | 13 | 293 | 4.8 | 11.3 | 0.00 | 0.00 | 0.00 | 78 | |
| 20260507050154 | 13 | 315 | 6.4 | 11.3 | 0.00 | 0.00 | 0.00 | 78 | |
| 20260507045154 | 13 | 270 | 4.8 | 12.9 | 0.00 | 0.00 | 0.00 | 77 | |
| 20260507044154 | 13 | 270 | 6.4 | 12.9 | 0.00 | 0.00 | 0.00 | 77 | |
| 20260507043134 | 13 | 270 | 6.4 | 11.3 | 0.00 | 0.00 | 0.00 | 76 | |
| 20260507042134 | 13 | 270 | 4.8 | 9.7 | 0.00 | 0.00 | 0.00 | 76 | |
| 20260507041134 | 13 | 270 | 4.8 | 9.7 | 0.00 | 0.00 | 0.00 | 76 | |
| 20260507040135 | 13 | 293 | 3.2 | 9.7 | 0.00 | 0.00 | 0.00 | 76 | |
| 20260507035135 | 13 | 293 | 4.8 | 11.3 | 0.00 | 0.00 | 0.00 | 76 | |
| 20260507034134 | 13 | 270 | 6.4 | 14.5 | 0.00 | 0.00 | 0.00 | 76 | |
| 20260507033134 | 13 | 293 | 8.0 | 20.9 | 0.00 | 0.00 | 0.00 | 76 | |
| 20260507032134 | 13 | 270 | 8.0 | 14.5 | 0.00 | 0.00 | 0.00 | 76 | |
| 20260507031134 | 13 | 293 | 9.7 | 16.1 | 0.00 | 0.00 | 0.00 | 76 | |
| 20260507030154 | 14 | 270 | 9.7 | 17.7 | 0.00 | 0.00 | 0.00 | 76 | |
| 20260507025134 | 14 | 270 | 9.7 | 20.9 | 0.00 | 0.00 | 0.00 | 76 | |
| 20260507024135 | 14 | 315 | 12.9 | 20.9 | 0.00 | 0.00 | 0.00 | 76 | |
| 20260507023154 | 14 | 293 | 11.3 | 20.9 | 0.00 | 0.00 | 0.00 | 76 | |
| 20260507022134 | 14 | 293 | 11.3 | 19.3 | 0.00 | 0.00 | 0.00 | 75 | |
| 20260507021134 | 14 | 293 | 11.3 | 19.3 | 0.00 | 0.00 | 0.00 | 75 | |
| 20260507020135 | 14 | 293 | 11.3 | 20.9 | 0.00 | 0.00 | 0.00 | 75 | |
| 20260507015135 | 14 | 270 | 9.7 | 19.3 | 0.00 | 0.00 | 0.00 | 75 | |
| 20260507014134 | 14 | 270 | 9.7 | 20.9 | 0.00 | 0.00 | 0.00 | 75 | |
| 20260507013134 | 15 | 293 | 8.0 | 19.3 | 0.00 | 0.00 | 0.00 | 76 | |
| 20260507012134 | 15 | 293 | 9.7 | 17.7 | 0.00 | 0.00 | 0.00 | 76 | |
| 20260507011134 | 15 | 293 | 11.3 | 19.3 | 0.00 | 0.00 | 0.00 | 75 | |
| 20260507010135 | 15 | 293 | 12.9 | 22.5 | 0.00 | 0.00 | 0.00 | 75 | |
| 20260507005155 | 15 | 293 | 11.3 | 19.3 | 0.00 | 0.00 | 0.00 | 75 | |
| 20260507004155 | 15 | 293 | 11.3 | 22.5 | 0.00 | 0.00 | 0.00 | 75 | |
| 20260507003134 | 15 | 293 | 12.9 | 22.5 | 0.00 | 0.00 | 0.00 | 74 | |
| 20260507002134 | 15 | 270 | 9.7 | 14.5 | 0.00 | 0.00 | 0.00 | 75 | |
| 20260507001135 | 15 | 293 | 9.7 | 14.5 | 0.00 | 0.00 | 0.00 | 74 | |
| 20260507000154 | 15 | 270 | 9.7 | 19.3 | 0.00 | 0.00 | 0.00 | 74 | |
| 20260506235135 | 15 | 293 | 11.3 | 19.3 | 0.00 | 0.00 | 0.00 | 75 | |
| 20260506234154 | 15 | 293 | 9.7 | 19.3 | 0.00 | 0.00 | 0.00 | 74 | |
| 20260506233134 | 15 | 293 | 11.3 | 19.3 | 0.00 | 0.00 | 0.00 | 74 | |
| 20260506232134 | 15 | 293 | 12.9 | 20.9 | 0.00 | 0.00 | 0.00 | 73 | |
| 20260506231135 | 16 | 270 | 12.9 | 22.5 | 0.00 | 0.00 | 0.00 | 72 | |
| 20260506230134 | 16 | 293 | 11.3 | 19.3 | 0.00 | 0.00 | 0.00 | 72 | |
| 20260506225215 | 16 | 293 | 12.9 | 20.9 | 0.00 | 0.00 | 0.00 | 72 | |
| 20260506224135 | 16 | 293 | 11.3 | 19.3 | 0.00 | 0.00 | 0.00 | 71 | |
| 20260506223134 | 16 | 293 | 11.3 | 22.5 | 0.00 | 0.00 | 0.00 | 71 | |
| 20260506222135 | 16 | 293 | 11.3 | 19.3 | 0.00 | 0.00 | 0.00 | 70 | |
| 20260506221134 | 17 | 270 | 8.0 | 17.7 | 0.00 | 0.00 | 0.00 | 69 | |
| 20260506220154 | 17 | 293 | 9.7 | 17.7 | 0.00 | 0.00 | 0.00 | 69 | |
| 20260506215134 | 17 | 293 | 9.7 | 19.3 | 0.00 | 0.00 | 0.00 | 69 | |
| 20260506214155 | 17 | 270 | 9.7 | 19.3 | 0.00 | 0.00 | 0.00 | 68 | |
| 20260506213135 | 17 | 293 | 9.7 | 20.9 | 0.00 | 0.00 | 0.00 | 69 | |
| 20260506212135 | 17 | 270 | 9.7 | 19.3 | 0.00 | 0.00 | 0.00 | 67 | |
| 20260506211135 | 17 | 293 | 11.3 | 20.9 | 0.00 | 0.00 | 0.00 | 67 | |
| 20260506210134 | 17 | 293 | 11.3 | 20.9 | 0.00 | 0.00 | 0.00 | 66 | |
| 20260506205135 | 18 | 293 | 9.7 | 16.1 | 0.00 | 0.00 | 0.00 | 65 | |
| 20260506204135 | 18 | 270 | 9.7 | 17.7 | 0.00 | 0.00 | 0.00 | 64 | |
| 20260506203155 | 17 | 293 | 8.0 | 17.7 | 0.00 | 0.00 | 0.00 | 65 | |
| 20260506202134 | 17 | 270 | 11.3 | 17.7 | 0.00 | 0.00 | 0.00 | 66 | |
| 20260506201135 | 17 | 315 | 11.3 | 19.3 | 0.00 | 0.00 | 0.00 | 66 | |
| 20260506200135 | 17 | 293 | 9.7 | 19.3 | 0.00 | 0.00 | 0.00 | 66 | |
| 20260506195155 | 17 | 225 | 6.4 | 14.5 | 0.00 | 0.00 | 0.00 | 67 | |
| 20260506194135 | 17 | 270 | 4.8 | 11.3 | 0.00 | 0.00 | 0.00 | 68 | |
| 20260506193135 | 17 | 270 | 1.6 | 8.0 | 0.00 | 0.00 | 0.00 | 70 | |
| 20260506192134 | 16 | 270 | 1.6 | 8.0 | 0.00 | 0.00 | 0.00 | 72 | |
| 20260506191134 | 16 | 270 | 4.8 | 9.7 | 0.00 | 0.00 | 0.00 | 74 | |
| 20260506190134 | 16 | 270 | 4.8 | 9.7 | 0.00 | 0.00 | 0.00 | 75 | |
| 20260506185135 | 16 | 293 | 3.2 | 8.0 | 0.00 | 0.00 | 0.00 | 75 | |
| 20260506184135 | 15 | 248 | 3.2 | 8.0 | 0.00 | 0.00 | 0.00 | 76 | |
| 20260506183155 | 15 | 248 | 4.8 | 9.7 | 0.00 | 0.00 | 0.00 | 78 | |
| 20260506182135 | 15 | 315 | 4.8 | 11.3 | 0.00 | 0.00 | 0.00 | 79 | |
| 20260506181135 | 15 | 248 | 6.4 | 9.7 | 0.00 | 0.00 | 0.00 | 78 | |
| 20260506180135 | 15 | 270 | 6.4 | 12.9 | 0.00 | 0.00 | 0.00 | 77 | |
| 20260506175135 | 15 | 248 | 4.8 | 9.7 | 0.00 | 0.00 | 0.00 | 77 | |
| 20260506174135 | 15 | 270 | 1.6 | 8.0 | 0.00 | 0.00 | 0.00 | 77 | |
| 20260506173135 | 15 | 270 | 3.2 | 6.4 | 0.00 | 0.00 | 0.00 | 77 | |
| 20260506172135 | 15 | 270 | 3.2 | 6.4 | 0.00 | 0.00 | 0.00 | 78 | |
| 20260506171134 | 15 | 270 | 3.2 | 8.0 | 0.00 | 0.00 | 0.00 | 78 | |
| 20260506170135 | 15 | 270 | 4.8 | 14.5 | 0.00 | 0.00 | 0.00 | 78 | |
| 20260506165135 | 14 | 0.0 | 6.4 | 0.00 | 0.00 | 0.00 | 79 | ||
| 20260506164135 | 14 | 293 | 1.6 | 8.0 | 0.00 | 0.00 | 0.00 | 79 | |
| 20260506163134 | 14 | 293 | 3.2 | 8.0 | 0.00 | 0.00 | 0.00 | 79 | |
| 20260506162134 | 13 | 0.0 | 4.8 | 0.00 | 0.00 | 0.00 | 80 | ||
| 20260506161135 | 13 | 293 | 1.6 | 8.0 | 0.00 | 0.00 | 0.00 | 79 | |
| 20260506160155 | 13 | 293 | 3.2 | 9.7 | 0.00 | 0.00 | 0.00 | 80 | |
| 20260506155135 | 13 | 293 | 3.2 | 9.7 | 0.00 | 0.00 | 0.00 | 79 | |
| 20260506154214 | 13 | 315 | 6.4 | 11.3 | 0.00 | 0.00 | 0.00 | 80 | |
| 20260506153135 | 13 | 315 | 3.2 | 9.7 | 0.00 | 0.00 | 0.00 | 80 | |
| 20260506152135 | 13 | 315 | 3.2 | 9.7 | 0.00 | 0.00 | 0.00 | 81 | |
| 20260506151155 | 13 | 0.0 | 4.8 | 0.00 | 0.00 | 0.00 | 81 | ||
| 20260506150134 | 13 | 315 | 3.2 | 8.0 | 0.00 | 0.00 | 0.00 | 81 | |
| 20260506145135 | 13 | 315 | 3.2 | 11.3 | 0.00 | 0.00 | 0.00 | 82 | |
| 20260506144135 | 13 | 315 | 3.2 | 8.0 | 0.00 | 0.00 | 0.00 | 83 | |
| 20260506143155 | 12 | 315 | 6.4 | 11.3 | 0.00 | 0.00 | 0.00 | 84 | |
| 20260506142134 | 12 | 293 | 6.4 | 14.5 | 0.00 | 0.00 | 0.00 | 84 | |
| 20260506141135 | 12 | 270 | 6.4 | 12.9 | 0.00 | 0.00 | 0.00 | 84 | |
| 20260506140135 | 12 | 293 | 6.4 | 11.3 | 0.00 | 0.00 | 0.00 | 84 | |
| 20260506135135 | 12 | 293 | 6.4 | 11.3 | 0.00 | 0.00 | 0.00 | 85 | |
| 20260506134155 | 12 | 293 | 4.8 | 6.4 | 0.00 | 0.00 | 0.00 | 85 | |
| 20260506133135 | 12 | 293 | 3.2 | 9.7 | 0.00 | 0.00 | 0.00 | 85 | |
| 20260506132134 | 12 | 293 | 6.4 | 11.3 | 0.00 | 0.00 | 0.00 | 85 | |
| 20260506131155 | 12 | 293 | 4.8 | 8.0 | 0.00 | 0.00 | 0.00 | 85 | |
| 20260506130135 | 12 | 293 | 4.8 | 9.7 | 0.00 | 0.00 | 0.00 | 85 | |
| 20260506125134 | 12 | 293 | 6.4 | 9.7 | 0.00 | 0.00 | 0.00 | 85 | |
| 20260506124134 | 12 | 293 | 3.2 | 6.4 | 0.00 | 0.00 | 0.00 | 86 | |
| 20260506123135 | 12 | 293 | 3.2 | 8.0 | 0.00 | 0.00 | 0.00 | 86 | |
| 20260506122135 | 12 | 293 | 4.8 | 11.3 | 0.00 | 0.00 | 0.00 | 86 | |
| 20260506121135 | 12 | 293 | 3.2 | 8.0 | 0.00 | 0.00 | 0.00 | 86 | |
| 20260506120135 | 12 | 293 | 4.8 | 9.7 | 0.00 | 0.00 | 0.00 | 86 | |
| 20260506115135 | 12 | 293 | 4.8 | 9.7 | 0.00 | 0.00 | 0.00 | 86 | |
| 20260506114135 | 12 | 293 | 4.8 | 9.7 | 0.00 | 0.00 | 0.00 | 86 | |
| 20260506113135 | 12 | 293 | 8.0 | 11.3 | 0.00 | 0.00 | 0.00 | 86 |